PAUN/UNK METAR and TAF weather

Enter ICAO airport designator
Station Type Date Time Source
PAUN METAR 2022/09/26 08:56 UTC NOAA

PAUN 260856Z AUTO 06011KT 10SM FEW041 OVC060 05/03 A2968 RMK AO2 SLP055 6//// T00500028 400830017 58004 PNO $


Station Type Date Time Source
PAUN Decoded METAR 2022/09/26 08:56 UTC NOAA

Unalakleet, AK, United States (PAUN) 63-53N 160-48W 6M
Sep 26, 2022 - 04:56 AM EDT / 2022.09.26 0856 UTC
Wind: from the ENE (060 degrees) at 13 MPH (11 KT):0
Visibility: 10 mile(s):0
Sky conditions: overcast
Temperature: 41.0 F (5.0 C)
Dew Point: 37.0 F (2.8 C)
Relative Humidity: 85%
Pressure (altimeter): 29.68 in. Hg (1005 hPa)
Pressure tendency: 0.01 inches (0.4 hPa) lower than three hours ago
ob: PAUN 260856Z AUTO 06011KT 10SM FEW041 OVC060 05/03 A2968 RMK AO2 SLP055 6//// T00500028 400830017 58004 PNO
cycle: 9

Station Type Date Time Source
PAUN TAF 2022/09/26 06:22 UTC NOAA

TAF PAUN 260520Z 2606/2706 08010KT P6SM VCSH BKN070 OVC080
FM261200 09010KT P6SM -SHRA BKN025 OVC040

Example: see airport list